sensor_id;sensor_type;location;lat;lon;timestamp;temperature;humidity
2565;DHT22;1292;48.020;7.822;2023-06-14T05:46:33;16.20;95.00
2565;DHT22;1292;48.020;7.822;2023-06-14T05:49:00;16.20;95.20
2565;DHT22;1292;48.020;7.822;2023-06-14T05:51:26;16.30;95.40
2565;DHT22;1292;48.020;7.822;2023-06-14T05:53:53;16.50;95.50
2565;DHT22;1292;48.020;7.822;2023-06-14T05:56:21;16.60;96.00
2565;DHT22;1292;48.020;7.822;2023-06-14T05:58:49;16.60;95.60
2565;DHT22;1292;48.020;7.822;2023-06-14T06:01:16;16.70;96.10
2565;DHT22;1292;48.020;7.822;2023-06-14T06:03:45;16.80;96.80
2565;DHT22;1292;48.020;7.822;2023-06-14T06:06:13;16.90;96.10
2565;DHT22;1292;48.020;7.822;2023-06-14T06:08:40;17.00;96.40
2565;DHT22;1292;48.020;7.822;2023-06-14T06:11:08;17.10;96.60
2565;DHT22;1292;48.020;7.822;2023-06-14T06:13:35;17.10;96.60
2565;DHT22;1292;48.020;7.822;2023-06-14T06:16:02;17.10;96.50
2565;DHT22;1292;48.020;7.822;2023-06-14T06:18:29;17.10;96.90
2565;DHT22;1292;48.020;7.822;2023-06-14T06:20:57;17.20;97.00
2565;DHT22;1292;48.020;7.822;2023-06-14T06:23:24;17.20;97.20
2565;DHT22;1292;48.020;7.822;2023-06-14T06:25:51;17.30;96.50
2565;DHT22;1292;48.020;7.822;2023-06-14T06:28:19;17.30;97.10
2565;DHT22;1292;48.020;7.822;2023-06-14T06:30:45;17.30;97.60
2565;DHT22;1292;48.020;7.822;2023-06-14T06:33:12;17.40;97.30
2565;DHT22;1292;48.020;7.822;2023-06-14T06:35:39;17.50;97.20
2565;DHT22;1292;48.020;7.822;2023-06-14T06:38:08;17.50;97.10
2565;DHT22;1292;48.020;7.822;2023-06-14T06:40:35;17.60;97.60
2565;DHT22;1292;48.020;7.822;2023-06-14T06:43:02;17.70;97.20
2565;DHT22;1292;48.020;7.822;2023-06-14T06:45:29;17.80;97.00
2565;DHT22;1292;48.020;7.822;2023-06-14T06:47:56;17.80;97.20
2565;DHT22;1292;48.020;7.822;2023-06-14T06:50:23;17.90;96.90
2565;DHT22;1292;48.020;7.822;2023-06-14T06:52:50;17.90;96.70
2565;DHT22;1292;48.020;7.822;2023-06-14T06:55:19;18.00;96.50
2565;DHT22;1292;48.020;7.822;2023-06-14T06:57:46;18.00;95.70
2565;DHT22;1292;48.020;7.822;2023-06-14T07:00:16;18.10;95.50
2565;DHT22;1292;48.020;7.822;2023-06-14T07:02:43;18.20;94.70
2565;DHT22;1292;48.020;7.822;2023-06-14T07:05:10;18.20;95.00
2565;DHT22;1292;48.020;7.822;2023-06-14T07:07:36;18.20;96.20
2565;DHT22;1292;48.020;7.822;2023-06-14T07:10:04;18.40;95.30
2565;DHT22;1292;48.020;7.822;2023-06-14T07:12:32;18.50;95.60
2565;DHT22;1292;48.020;7.822;2023-06-14T07:15:05;18.60;96.60
2565;DHT22;1292;48.020;7.822;2023-06-14T07:17:32;18.70;95.90
2565;DHT22;1292;48.020;7.822;2023-06-14T07:20:01;18.80;95.70
2565;DHT22;1292;48.020;7.822;2023-06-14T07:22:37;18.90;96.10
2565;DHT22;1292;48.020;7.822;2023-06-14T07:25:05;19.00;94.70
2565;DHT22;1292;48.020;7.822;2023-06-14T07:27:33;19.10;95.10
2565;DHT22;1292;48.020;7.822;2023-06-14T07:30:00;19.20;96.00
2565;DHT22;1292;48.020;7.822;2023-06-14T07:32:27;19.30;94.30
2565;DHT22;1292;48.020;7.822;2023-06-14T07:34:54;19.40;95.70
2565;DHT22;1292;48.020;7.822;2023-06-14T07:37:20;19.40;96.00
2565;DHT22;1292;48.020;7.822;2023-06-14T07:39:47;19.50;96.00
2565;DHT22;1292;48.020;7.822;2023-06-14T07:42:14;19.60;95.90
2565;DHT22;1292;48.020;7.822;2023-06-14T07:44:42;19.60;96.30
2565;DHT22;1292;48.020;7.822;2023-06-14T07:47:09;19.60;95.00
2565;DHT22;1292;48.020;7.822;2023-06-14T07:49:35;19.70;95.80
2565;DHT22;1292;48.020;7.822;2023-06-14T07:52:03;19.70;95.70
2565;DHT22;1292;48.020;7.822;2023-06-14T07:54:30;19.80;95.90
2565;DHT22;1292;48.020;7.822;2023-06-14T07:56:58;19.90;95.90
2565;DHT22;1292;48.020;7.822;2023-06-14T07:59:26;20.00;96.10
2565;DHT22;1292;48.020;7.822;2023-06-14T08:01:54;20.10;95.80
2565;DHT22;1292;48.020;7.822;2023-06-14T08:04:20;20.10;95.10
2565;DHT22;1292;48.020;7.822;2023-06-14T08:06:47;20.10;95.30
2565;DHT22;1292;48.020;7.822;2023-06-14T08:09:14;20.20;96.30
2565;DHT22;1292;48.020;7.822;2023-06-14T08:11:42;20.30;96.30
2565;DHT22;1292;48.020;7.822;2023-06-14T08:14:08;20.30;95.50
2565;DHT22;1292;48.020;7.822;2023-06-14T08:16:35;20.40;95.90
2565;DHT22;1292;48.020;7.822;2023-06-14T08:19:04;20.40;96.20
2565;DHT22;1292;48.020;7.822;2023-06-14T08:21:31;20.50;95.40
2565;DHT22;1292;48.020;7.822;2023-06-14T08:23:59;20.50;95.50
2565;DHT22;1292;48.020;7.822;2023-06-14T08:26:26;20.50;95.70
2565;DHT22;1292;48.020;7.822;2023-06-14T08:28:54;20.60;95.70
2565;DHT22;1292;48.020;7.822;2023-06-14T08:31:21;20.80;96.20
2565;DHT22;1292;48.020;7.822;2023-06-14T08:33:49;20.90;97.00
2565;DHT22;1292;48.020;7.822;2023-06-14T08:36:17;21.10;96.00
2565;DHT22;1292;48.020;7.822;2023-06-14T08:38:44;21.20;95.10
2565;DHT22;1292;48.020;7.822;2023-06-14T08:41:12;21.20;95.00
2565;DHT22;1292;48.020;7.822;2023-06-14T08:43:42;21.30;94.10
2565;DHT22;1292;48.020;7.822;2023-06-14T08:46:09;21.40;95.00
2565;DHT22;1292;48.020;7.822;2023-06-14T08:48:38;21.60;94.70
2565;DHT22;1292;48.020;7.822;2023-06-14T08:51:05;21.70;94.00
2565;DHT22;1292;48.020;7.822;2023-06-14T08:53:35;21.80;94.70
2565;DHT22;1292;48.020;7.822;2023-06-14T08:56:08;22.00;92.80
2565;DHT22;1292;48.020;7.822;2023-06-14T08:58:40;22.10;92.20
2565;DHT22;1292;48.020;7.822;2023-06-14T09:01:10;22.20;92.80
2565;DHT22;1292;48.020;7.822;2023-06-14T09:03:40;22.40;92.60
2565;DHT22;1292;48.020;7.822;2023-06-14T09:06:08;22.50;91.80
2565;DHT22;1292;48.020;7.822;2023-06-14T09:08:42;22.60;92.40
2565;DHT22;1292;48.020;7.822;2023-06-14T09:11:10;22.80;91.90
2565;DHT22;1292;48.020;7.822;2023-06-14T09:13:37;22.90;92.00
2565;DHT22;1292;48.020;7.822;2023-06-14T09:16:05;23.00;91.50
2565;DHT22;1292;48.020;7.822;2023-06-14T09:18:35;23.20;91.50
2565;DHT22;1292;48.020;7.822;2023-06-14T09:21:03;23.20;90.50
2565;DHT22;1292;48.020;7.822;2023-06-14T09:23:33;23.30;90.70
2565;DHT22;1292;48.020;7.822;2023-06-14T09:26:07;23.30;90.30
2565;DHT22;1292;48.020;7.822;2023-06-14T09:28:34;23.40;90.20
2565;DHT22;1292;48.020;7.822;2023-06-14T09:31:01;23.50;90.50
2565;DHT22;1292;48.020;7.822;2023-06-14T09:33:28;23.60;90.30
2565;DHT22;1292;48.020;7.822;2023-06-14T09:35:57;23.70;89.60
2565;DHT22;1292;48.020;7.822;2023-06-14T09:38:25;23.80;89.20
2565;DHT22;1292;48.020;7.822;2023-06-14T09:40:52;23.90;89.80
2565;DHT22;1292;48.020;7.822;2023-06-14T09:43:21;23.80;88.90
2565;DHT22;1292;48.020;7.822;2023-06-14T09:45:48;23.90;88.70
2565;DHT22;1292;48.020;7.822;2023-06-14T09:48:15;24.00;87.60
2565;DHT22;1292;48.020;7.822;2023-06-14T09:50:45;24.10;90.00
2565;DHT22;1292;48.020;7.822;2023-06-14T09:53:12;24.20;88.00
2565;DHT22;1292;48.020;7.822;2023-06-14T09:55:41;24.20;86.80
2565;DHT22;1292;48.020;7.822;2023-06-14T09:58:09;24.30;89.20
2565;DHT22;1292;48.020;7.822;2023-06-14T10:00:39;24.50;87.10
2565;DHT22;1292;48.020;7.822;2023-06-14T10:03:12;24.50;88.10
2565;DHT22;1292;48.020;7.822;2023-06-14T10:05:42;24.60;88.10
2565;DHT22;1292;48.020;7.822;2023-06-14T10:08:13;24.70;87.10
2565;DHT22;1292;48.020;7.822;2023-06-14T10:10:41;24.70;86.60
2565;DHT22;1292;48.020;7.822;2023-06-14T10:13:09;24.80;89.00
2565;DHT22;1292;48.020;7.822;2023-06-14T10:15:47;24.70;88.20
2565;DHT22;1292;48.020;7.822;2023-06-14T10:18:23;24.80;87.40
2565;DHT22;1292;48.020;7.822;2023-06-14T10:20:55;25.00;85.30
2565;DHT22;1292;48.020;7.822;2023-06-14T10:23:25;25.10;86.60
2565;DHT22;1292;48.020;7.822;2023-06-14T10:25:56;25.40;85.60
2565;DHT22;1292;48.020;7.822;2023-06-14T10:28:23;25.40;83.10
2565;DHT22;1292;48.020;7.822;2023-06-14T10:31:05;25.50;84.20
2565;DHT22;1292;48.020;7.822;2023-06-14T10:33:32;25.60;84.90
2565;DHT22;1292;48.020;7.822;2023-06-14T10:36:11;25.40;83.50
2565;DHT22;1292;48.020;7.822;2023-06-14T10:38:57;25.50;84.10
2565;DHT22;1292;48.020;7.822;2023-06-14T10:41:27;25.40;81.50
2565;DHT22;1292;48.020;7.822;2023-06-14T10:46:57;25.60;83.10
2565;DHT22;1292;48.020;7.822;2023-06-14T10:49:37;25.70;80.20
2565;DHT22;1292;48.020;7.822;2023-06-14T10:52:08;25.70;80.50
2565;DHT22;1292;48.020;7.822;2023-06-14T10:54:38;25.70;82.20
2565;DHT22;1292;48.020;7.822;2023-06-14T10:57:15;25.70;81.10
2565;DHT22;1292;48.020;7.822;2023-06-14T10:59:42;25.70;81.80
2565;DHT22;1292;48.020;7.822;2023-06-14T11:02:27;25.80;81.90
2565;DHT22;1292;48.020;7.822;2023-06-14T11:05:04;26.00;80.40
2565;DHT22;1292;48.020;7.822;2023-06-14T11:07:47;26.00;79.50
2565;DHT22;1292;48.020;7.822;2023-06-14T11:10:26;26.00;81.20
2565;DHT22;1292;48.020;7.822;2023-06-14T11:12:57;26.10;81.30
2565;DHT22;1292;48.020;7.822;2023-06-14T11:15:28;26.20;79.00
2565;DHT22;1292;48.020;7.822;2023-06-14T11:17:57;26.00;79.10
2565;DHT22;1292;48.020;7.822;2023-06-14T11:20:27;26.00;79.50
2565;DHT22;1292;48.020;7.822;2023-06-14T11:22:54;26.00;80.60
2565;DHT22;1292;48.020;7.822;2023-06-14T11:25:21;26.10;80.60
2565;DHT22;1292;48.020;7.822;2023-06-14T11:27:49;26.10;78.50
2565;DHT22;1292;48.020;7.822;2023-06-14T11:30:17;26.10;78.90
2565;DHT22;1292;48.020;7.822;2023-06-14T11:32:46;26.10;80.50
2565;DHT22;1292;48.020;7.822;2023-06-14T11:35:15;26.30;79.80
2565;DHT22;1292;48.020;7.822;2023-06-14T11:37:42;26.50;81.30
2565;DHT22;1292;48.020;7.822;2023-06-14T11:40:11;26.60;81.70
2565;DHT22;1292;48.020;7.822;2023-06-14T11:42:39;26.70;79.40
2565;DHT22;1292;48.020;7.822;2023-06-14T11:45:08;26.60;80.80
2565;DHT22;1292;48.020;7.822;2023-06-14T11:47:36;26.60;82.20
2565;DHT22;1292;48.020;7.822;2023-06-14T11:50:04;26.60;81.20
2565;DHT22;1292;48.020;7.822;2023-06-14T11:52:33;26.80;77.90
2565;DHT22;1292;48.020;7.822;2023-06-14T11:55:00;26.70;77.00
2565;DHT22;1292;48.020;7.822;2023-06-14T11:57:30;26.60;77.50
2565;DHT22;1292;48.020;7.822;2023-06-14T11:59:57;26.60;79.20
2565;DHT22;1292;48.020;7.822;2023-06-14T12:02:23;26.70;77.10
2565;DHT22;1292;48.020;7.822;2023-06-14T12:04:53;26.60;76.80
2565;DHT22;1292;48.020;7.822;2023-06-14T12:07:22;26.70;78.50
2565;DHT22;1292;48.020;7.822;2023-06-14T12:10:07;26.70;78.70
2565;DHT22;1292;48.020;7.822;2023-06-14T12:12:36;26.80;78.00
2565;DHT22;1292;48.020;7.822;2023-06-14T12:15:03;26.90;77.10
2565;DHT22;1292;48.020;7.822;2023-06-14T12:17:32;27.00;80.50
2565;DHT22;1292;48.020;7.822;2023-06-14T12:20:05;26.90;77.80
2565;DHT22;1292;48.020;7.822;2023-06-14T12:22:36;27.00;77.80
2565;DHT22;1292;48.020;7.822;2023-06-14T12:25:03;27.00;77.10
2565;DHT22;1292;48.020;7.822;2023-06-14T12:27:32;27.00;77.30
2565;DHT22;1292;48.020;7.822;2023-06-14T12:30:00;27.00;78.10
2565;DHT22;1292;48.020;7.822;2023-06-14T12:32:28;27.10;76.70
2565;DHT22;1292;48.020;7.822;2023-06-14T12:34:55;27.10;76.90
2565;DHT22;1292;48.020;7.822;2023-06-14T12:37:22;27.10;75.80
2565;DHT22;1292;48.020;7.822;2023-06-14T12:39:49;27.00;76.40
2565;DHT22;1292;48.020;7.822;2023-06-14T12:42:16;26.90;75.80
2565;DHT22;1292;48.020;7.822;2023-06-14T12:44:45;27.00;76.50
2565;DHT22;1292;48.020;7.822;2023-06-14T12:47:12;27.10;76.20
2565;DHT22;1292;48.020;7.822;2023-06-14T12:49:39;27.10;76.80
2565;DHT22;1292;48.020;7.822;2023-06-14T12:52:08;27.00;77.00
2565;DHT22;1292;48.020;7.822;2023-06-14T12:54:35;27.20;79.30
2565;DHT22;1292;48.020;7.822;2023-06-14T12:57:02;27.50;78.10
2565;DHT22;1292;48.020;7.822;2023-06-14T12:59:29;27.50;75.60
2565;DHT22;1292;48.020;7.822;2023-06-14T13:02:13;27.40;75.80
2565;DHT22;1292;48.020;7.822;2023-06-14T13:04:40;27.30;75.30
2565;DHT22;1292;48.020;7.822;2023-06-14T13:07:07;27.20;77.00
2565;DHT22;1292;48.020;7.822;2023-06-14T13:09:34;27.20;76.10
2565;DHT22;1292;48.020;7.822;2023-06-14T13:12:01;27.30;77.70
2565;DHT22;1292;48.020;7.822;2023-06-14T13:14:29;27.30;78.10
2565;DHT22;1292;48.020;7.822;2023-06-14T13:16:56;27.40;76.10
2565;DHT22;1292;48.020;7.822;2023-06-14T13:19:24;27.10;76.90
2565;DHT22;1292;48.020;7.822;2023-06-14T13:21:51;27.10;77.70
2565;DHT22;1292;48.020;7.822;2023-06-14T13:24:18;27.20;76.90
2565;DHT22;1292;48.020;7.822;2023-06-14T13:26:45;27.30;77.30
2565;DHT22;1292;48.020;7.822;2023-06-14T13:29:12;27.40;78.30
2565;DHT22;1292;48.020;7.822;2023-06-14T13:31:39;27.30;77.10
2565;DHT22;1292;48.020;7.822;2023-06-14T13:34:06;27.10;75.70
2565;DHT22;1292;48.020;7.822;2023-06-14T13:36:34;27.10;76.90
2565;DHT22;1292;48.020;7.822;2023-06-14T13:39:01;27.10;77.90
2565;DHT22;1292;48.020;7.822;2023-06-14T13:41:28;27.10;78.10
2565;DHT22;1292;48.020;7.822;2023-06-14T13:43:57;27.20;76.00
2565;DHT22;1292;48.020;7.822;2023-06-14T13:46:25;27.20;77.40
2565;DHT22;1292;48.020;7.822;2023-06-14T13:48:52;27.30;76.20
2565;DHT22;1292;48.020;7.822;2023-06-14T13:51:19;27.10;76.50
2565;DHT22;1292;48.020;7.822;2023-06-14T13:53:48;27.30;77.70
2565;DHT22;1292;48.020;7.822;2023-06-14T13:56:16;27.50;76.30
2565;DHT22;1292;48.020;7.822;2023-06-14T13:58:44;27.50;75.00
2565;DHT22;1292;48.020;7.822;2023-06-14T14:01:11;27.40;75.10
2565;DHT22;1292;48.020;7.822;2023-06-14T14:03:38;27.30;76.40
2565;DHT22;1292;48.020;7.822;2023-06-14T14:06:05;27.40;75.90
2565;DHT22;1292;48.020;7.822;2023-06-14T14:08:32;27.30;75.00
2565;DHT22;1292;48.020;7.822;2023-06-14T14:11:00;27.30;76.70
2565;DHT22;1292;48.020;7.822;2023-06-14T14:13:27;27.30;75.50
2565;DHT22;1292;48.020;7.822;2023-06-14T14:15:54;27.30;74.50
2565;DHT22;1292;48.020;7.822;2023-06-14T14:18:21;27.30;75.90
2565;DHT22;1292;48.020;7.822;2023-06-14T14:20:48;27.50;75.80
2565;DHT22;1292;48.020;7.822;2023-06-14T14:23:15;27.50;75.10
2565;DHT22;1292;48.020;7.822;2023-06-14T14:25:42;27.50;75.70
2565;DHT22;1292;48.020;7.822;2023-06-14T14:28:11;27.60;75.10
2565;DHT22;1292;48.020;7.822;2023-06-14T14:30:39;27.50;74.80
2565;DHT22;1292;48.020;7.822;2023-06-14T14:33:06;27.50;74.40
2565;DHT22;1292;48.020;7.822;2023-06-14T14:35:33;27.40;74.50
2565;DHT22;1292;48.020;7.822;2023-06-14T14:38:00;27.50;76.00
2565;DHT22;1292;48.020;7.822;2023-06-14T14:40:28;27.50;75.80
2565;DHT22;1292;48.020;7.822;2023-06-14T14:42:55;27.50;74.10
2565;DHT22;1292;48.020;7.822;2023-06-14T14:45:23;27.30;75.30
2565;DHT22;1292;48.020;7.822;2023-06-14T14:47:50;27.40;76.60
2565;DHT22;1292;48.020;7.822;2023-06-14T14:50:17;27.50;75.30
2565;DHT22;1292;48.020;7.822;2023-06-14T14:52:44;27.40;74.60
2565;DHT22;1292;48.020;7.822;2023-06-14T14:55:11;27.30;76.20
2565;DHT22;1292;48.020;7.822;2023-06-14T14:57:38;27.20;76.40
2565;DHT22;1292;48.020;7.822;2023-06-14T15:00:06;27.30;76.80
2565;DHT22;1292;48.020;7.822;2023-06-14T15:02:34;27.20;75.30
2565;DHT22;1292;48.020;7.822;2023-06-14T15:05:01;27.10;76.60
2565;DHT22;1292;48.020;7.822;2023-06-14T15:07:28;27.00;76.00
2565;DHT22;1292;48.020;7.822;2023-06-14T15:09:55;26.90;76.50
2565;DHT22;1292;48.020;7.822;2023-06-14T15:12:22;27.00;76.20
2565;DHT22;1292;48.020;7.822;2023-06-14T15:14:50;27.00;76.60
2565;DHT22;1292;48.020;7.822;2023-06-14T15:17:17;27.10;76.50
2565;DHT22;1292;48.020;7.822;2023-06-14T15:19:46;27.10;76.60
2565;DHT22;1292;48.020;7.822;2023-06-14T15:22:13;27.00;75.80
2565;DHT22;1292;48.020;7.822;2023-06-14T15:24:40;26.80;76.10
2565;DHT22;1292;48.020;7.822;2023-06-14T15:27:07;26.70;76.80
2565;DHT22;1292;48.020;7.822;2023-06-14T15:29:35;26.80;77.00
2565;DHT22;1292;48.020;7.822;2023-06-14T15:32:02;26.90;77.70
2565;DHT22;1292;48.020;7.822;2023-06-14T15:34:30;27.10;75.70
2565;DHT22;1292;48.020;7.822;2023-06-14T15:36:58;27.20;75.50
2565;DHT22;1292;48.020;7.822;2023-06-14T15:39:25;27.30;76.30
2565;DHT22;1292;48.020;7.822;2023-06-14T15:41:52;27.20;74.70
2565;DHT22;1292;48.020;7.822;2023-06-14T15:44:19;27.10;75.70
2565;DHT22;1292;48.020;7.822;2023-06-14T15:46:46;27.10;75.50
2565;DHT22;1292;48.020;7.822;2023-06-14T15:49:13;27.10;77.00
2565;DHT22;1292;48.020;7.822;2023-06-14T15:51:40;27.10;75.60
2565;DHT22;1292;48.020;7.822;2023-06-14T15:54:08;27.10;77.00
2565;DHT22;1292;48.020;7.822;2023-06-14T15:56:35;27.20;75.40
2565;DHT22;1292;48.020;7.822;2023-06-14T15:59:02;27.20;75.80
2565;DHT22;1292;48.020;7.822;2023-06-14T16:01:29;27.10;76.00
2565;DHT22;1292;48.020;7.822;2023-06-14T16:03:56;27.20;75.90
2565;DHT22;1292;48.020;7.822;2023-06-14T16:06:23;27.10;75.60
2565;DHT22;1292;48.020;7.822;2023-06-14T16:08:50;27.10;76.50
2565;DHT22;1292;48.020;7.822;2023-06-14T16:11:19;27.10;76.60
2565;DHT22;1292;48.020;7.822;2023-06-14T16:13:46;27.10;75.70
2565;DHT22;1292;48.020;7.822;2023-06-14T16:16:13;27.10;76.60
2565;DHT22;1292;48.020;7.822;2023-06-14T16:18:40;27.10;77.30
2565;DHT22;1292;48.020;7.822;2023-06-14T16:21:06;27.10;75.70
2565;DHT22;1292;48.020;7.822;2023-06-14T16:23:35;26.90;76.00
2565;DHT22;1292;48.020;7.822;2023-06-14T16:26:02;26.90;76.90
2565;DHT22;1292;48.020;7.822;2023-06-14T16:28:31;27.00;77.90
2565;DHT22;1292;48.020;7.822;2023-06-14T16:30:58;27.00;75.20
2565;DHT22;1292;48.020;7.822;2023-06-14T16:33:25;26.90;76.10
2565;DHT22;1292;48.020;7.822;2023-06-14T16:35:52;26.60;76.40
2565;DHT22;1292;48.020;7.822;2023-06-14T16:38:19;26.60;76.00
2565;DHT22;1292;48.020;7.822;2023-06-14T16:40:47;26.50;76.20
2565;DHT22;1292;48.020;7.822;2023-06-14T16:43:13;26.50;76.80
2565;DHT22;1292;48.020;7.822;2023-06-14T16:45:42;26.60;76.10
2565;DHT22;1292;48.020;7.822;2023-06-14T16:48:09;26.50;76.00
2565;DHT22;1292;48.020;7.822;2023-06-14T16:50:36;26.30;76.10
2565;DHT22;1292;48.020;7.822;2023-06-14T16:53:03;26.30;76.60
2565;DHT22;1292;48.020;7.822;2023-06-14T16:55:30;26.30;76.90
2565;DHT22;1292;48.020;7.822;2023-06-14T16:57:57;26.20;77.40
2565;DHT22;1292;48.020;7.822;2023-06-14T17:00:25;26.20;76.80
2565;DHT22;1292;48.020;7.822;2023-06-14T17:02:53;26.20;78.00
2565;DHT22;1292;48.020;7.822;2023-06-14T17:05:20;26.20;76.80
2565;DHT22;1292;48.020;7.822;2023-06-14T17:07:47;26.10;77.80
2565;DHT22;1292;48.020;7.822;2023-06-14T17:10:14;26.10;77.50
2565;DHT22;1292;48.020;7.822;2023-06-14T17:12:41;26.10;77.90
2565;DHT22;1292;48.020;7.822;2023-06-14T17:15:09;26.00;78.40
2565;DHT22;1292;48.020;7.822;2023-06-14T17:17:36;25.90;78.00
2565;DHT22;1292;48.020;7.822;2023-06-14T17:20:06;25.90;78.80
2565;DHT22;1292;48.020;7.822;2023-06-14T17:22:33;25.90;78.70
2565;DHT22;1292;48.020;7.822;2023-06-14T17:25:00;25.70;78.80
2565;DHT22;1292;48.020;7.822;2023-06-14T17:27:27;25.70;78.30
2565;DHT22;1292;48.020;7.822;2023-06-14T17:29:54;25.60;78.90
2565;DHT22;1292;48.020;7.822;2023-06-14T17:32:21;25.70;79.50
2565;DHT22;1292;48.020;7.822;2023-06-14T17:34:48;25.80;79.90
2565;DHT22;1292;48.020;7.822;2023-06-14T17:37:16;25.80;79.20
2565;DHT22;1292;48.020;7.822;2023-06-14T17:39:43;25.70;79.80
2565;DHT22;1292;48.020;7.822;2023-06-14T17:42:10;25.50;79.30
2565;DHT22;1292;48.020;7.822;2023-06-14T17:44:37;25.40;79.30
2565;DHT22;1292;48.020;7.822;2023-06-14T17:47:04;25.40;79.30
2565;DHT22;1292;48.020;7.822;2023-06-14T17:49:31;25.30;79.10
2565;DHT22;1292;48.020;7.822;2023-06-14T17:51:58;25.20;79.40
2565;DHT22;1292;48.020;7.822;2023-06-14T17:54:26;25.20;80.10
2565;DHT22;1292;48.020;7.822;2023-06-14T17:56:53;25.20;79.40
2565;DHT22;1292;48.020;7.822;2023-06-14T17:59:19;25.10;80.70
2565;DHT22;1292;48.020;7.822;2023-06-14T18:01:46;25.00;80.40
2565;DHT22;1292;48.020;7.822;2023-06-14T18:04:13;25.00;80.20
2565;DHT22;1292;48.020;7.822;2023-06-14T18:06:40;25.00;80.50
2565;DHT22;1292;48.020;7.822;2023-06-14T18:09:09;25.00;80.20
2565;DHT22;1292;48.020;7.822;2023-06-14T18:11:37;24.90;80.40
2565;DHT22;1292;48.020;7.822;2023-06-14T18:14:04;24.80;81.00
2565;DHT22;1292;48.020;7.822;2023-06-14T18:16:31;24.80;81.00
2565;DHT22;1292;48.020;7.822;2023-06-14T18:18:57;24.70;80.60
2565;DHT22;1292;48.020;7.822;2023-06-14T18:21:25;24.60;80.90
2565;DHT22;1292;48.020;7.822;2023-06-14T18:23:52;24.50;81.40
2565;DHT22;1292;48.020;7.822;2023-06-14T18:26:21;24.50;81.60
2565;DHT22;1292;48.020;7.822;2023-06-14T18:28:49;24.40;81.30
2565;DHT22;1292;48.020;7.822;2023-06-14T18:31:16;24.40;82.00
2565;DHT22;1292;48.020;7.822;2023-06-14T18:33:43;24.40;81.20
2565;DHT22;1292;48.020;7.822;2023-06-14T18:36:10;24.40;81.50
2565;DHT22;1292;48.020;7.822;2023-06-14T18:38:37;24.30;81.80
2565;DHT22;1292;48.020;7.822;2023-06-14T18:41:04;24.30;82.10
2565;DHT22;1292;48.020;7.822;2023-06-14T18:43:31;24.30;83.20
2565;DHT22;1292;48.020;7.822;2023-06-14T18:45:59;24.20;82.50
2565;DHT22;1292;48.020;7.822;2023-06-14T18:48:26;24.10;82.20
2565;DHT22;1292;48.020;7.822;2023-06-14T18:50:53;24.10;83.30
2565;DHT22;1292;48.020;7.822;2023-06-14T18:53:20;24.10;82.50
2565;DHT22;1292;48.020;7.822;2023-06-14T18:55:47;24.00;82.50
2565;DHT22;1292;48.020;7.822;2023-06-14T18:58:15;24.00;82.90
2565;DHT22;1292;48.020;7.822;2023-06-14T19:00:42;24.00;82.80
2565;DHT22;1292;48.020;7.822;2023-06-14T19:03:10;24.00;83.40
2565;DHT22;1292;48.020;7.822;2023-06-14T19:05:37;23.90;83.70
2565;DHT22;1292;48.020;7.822;2023-06-14T19:08:04;23.90;82.80
2565;DHT22;1292;48.020;7.822;2023-06-14T19:10:31;23.90;83.30
2565;DHT22;1292;48.020;7.822;2023-06-14T19:12:58;23.70;83.60
2565;DHT22;1292;48.020;7.822;2023-06-14T19:15:25;23.70;83.30
2565;DHT22;1292;48.020;7.822;2023-06-14T19:17:57;23.60;83.90
2565;DHT22;1292;48.020;7.822;2023-06-14T19:20:27;23.60;85.00
2565;DHT22;1292;48.020;7.822;2023-06-14T19:22:54;23.60;83.60
2565;DHT22;1292;48.020;7.822;2023-06-14T19:25:21;23.50;83.10
2565;DHT22;1292;48.020;7.822;2023-06-14T19:27:48;23.40;84.20
2565;DHT22;1292;48.020;7.822;2023-06-14T19:30:16;23.30;84.40
2565;DHT22;1292;48.020;7.822;2023-06-14T19:32:43;23.20;83.60
2565;DHT22;1292;48.020;7.822;2023-06-14T19:35:10;23.10;84.90
2565;DHT22;1292;48.020;7.822;2023-06-14T19:37:38;23.10;83.70
2565;DHT22;1292;48.020;7.822;2023-06-14T19:40:06;23.10;84.30
2565;DHT22;1292;48.020;7.822;2023-06-14T19:42:33;23.10;84.80
2565;DHT22;1292;48.020;7.822;2023-06-14T19:45:00;23.00;85.00
2565;DHT22;1292;48.020;7.822;2023-06-14T19:47:26;23.00;84.70
2565;DHT22;1292;48.020;7.822;2023-06-14T19:49:53;23.00;84.40
2565;DHT22;1292;48.020;7.822;2023-06-14T19:52:20;22.90;84.30
2565;DHT22;1292;48.020;7.822;2023-06-14T19:54:50;22.90;84.50
2565;DHT22;1292;48.020;7.822;2023-06-14T19:57:17;22.90;84.80
2565;DHT22;1292;48.020;7.822;2023-06-14T19:59:44;22.80;84.90
2565;DHT22;1292;48.020;7.822;2023-06-14T20:02:11;22.70;84.90
2565;DHT22;1292;48.020;7.822;2023-06-14T20:04:38;22.70;85.30
2565;DHT22;1292;48.020;7.822;2023-06-14T20:07:05;22.70;85.40
2565;DHT22;1292;48.020;7.822;2023-06-14T20:09:32;22.60;85.00
2565;DHT22;1292;48.020;7.822;2023-06-14T20:12:00;22.60;85.80
2565;DHT22;1292;48.020;7.822;2023-06-14T20:14:27;22.50;85.50
2565;DHT22;1292;48.020;7.822;2023-06-14T20:16:55;22.50;85.90
2565;DHT22;1292;48.020;7.822;2023-06-14T20:19:23;22.50;86.20
2565;DHT22;1292;48.020;7.822;2023-06-14T20:21:50;22.50;86.30
2565;DHT22;1292;48.020;7.822;2023-06-14T20:24:16;22.40;86.30
2565;DHT22;1292;48.020;7.822;2023-06-14T20:26:43;22.40;86.90
2565;DHT22;1292;48.020;7.822;2023-06-14T20:29:11;22.30;87.00
2565;DHT22;1292;48.020;7.822;2023-06-14T20:31:38;22.30;87.20
2565;DHT22;1292;48.020;7.822;2023-06-14T20:34:05;22.20;87.50
2565;DHT22;1292;48.020;7.822;2023-06-14T20:36:32;22.10;88.80
2565;DHT22;1292;48.020;7.822;2023-06-14T20:38:58;22.00;88.60
2565;DHT22;1292;48.020;7.822;2023-06-14T20:41:25;21.80;89.00
2565;DHT22;1292;48.020;7.822;2023-06-14T20:43:52;21.60;90.30
2565;DHT22;1292;48.020;7.822;2023-06-14T20:46:24;21.50;90.80
2565;DHT22;1292;48.020;7.822;2023-06-14T20:48:54;21.30;92.40
2565;DHT22;1292;48.020;7.822;2023-06-14T20:51:21;21.10;93.30
2565;DHT22;1292;48.020;7.822;2023-06-14T20:53:48;20.90;92.40
2565;DHT22;1292;48.020;7.822;2023-06-14T20:56:15;20.90;91.90
2565;DHT22;1292;48.020;7.822;2023-06-14T20:58:43;20.90;92.20
2565;DHT22;1292;48.020;7.822;2023-06-14T21:01:10;20.80;92.70
2565;DHT22;1292;48.020;7.822;2023-06-14T21:03:38;20.80;92.70
2565;DHT22;1292;48.020;7.822;2023-06-14T21:06:05;20.80;91.90
2565;DHT22;1292;48.020;7.822;2023-06-14T21:08:32;20.90;91.50
2565;DHT22;1292;48.020;7.822;2023-06-14T21:10:59;21.00;92.30
2565;DHT22;1292;48.020;7.822;2023-06-14T21:13:25;20.90;90.70
2565;DHT22;1292;48.020;7.822;2023-06-14T21:15:52;20.90;91.00
2565;DHT22;1292;48.020;7.822;2023-06-14T21:18:19;21.00;91.40
2565;DHT22;1292;48.020;7.822;2023-06-14T21:20:47;21.00;91.70
2565;DHT22;1292;48.020;7.822;2023-06-14T21:23:15;21.00;91.80
2565;DHT22;1292;48.020;7.822;2023-06-14T21:25:42;20.90;91.50
2565;DHT22;1292;48.020;7.822;2023-06-14T21:28:10;21.00;91.20
2565;DHT22;1292;48.020;7.822;2023-06-14T21:30:37;20.90;91.20
2565;DHT22;1292;48.020;7.822;2023-06-14T21:33:04;20.90;91.50
2565;DHT22;1292;48.020;7.822;2023-06-14T21:35:31;20.80;91.70
2565;DHT22;1292;48.020;7.822;2023-06-14T21:37:59;20.80;91.70
